Elettra — H9AK — position and weather

sailwx.info

Track history (hours):
 
Tides and Currents Weather Stations Pressure Air Temp Water Temp Dewpoint Dewpoint Depression Visibility Wind Speed Wind Dir Waves Ship Positions

Elettra

Last reported at 2015-Jan-01 19:29 UTC. Time now 2015-Jan-29 18:23 UTC.
Position S 27°02' E 153°49'.
Warning: this ship's position is 27 days out of date.

Length 254 m; draft 13.5 m.

Type: Ship. MMSI: 371188000.

Date/timePositionNaut miles runAvg speedWind from/ knotsBaromVisibWave heightAir tempDewpointWater temp
2015-Jan-01 19:29S 27°02' E 153°49'1211.0
2015-Jan-01 18:25S 27°13' E 153°48'1010.5
2015-Jan-01 17:30S 27°23' E 153°47'1010.1
2015-Jan-01 16:33S 27°33' E 153°48'1010.0
2015-Jan-01 15:33S 27°43' E 153°49'1010.1
2015-Jan-01 14:33S 27°53' E 153°49'10 9.7
2015-Jan-01 13:33S 28°02' E 153°50'276 8.3
2014-Dec-31 04:23S 32°31' E 152°41'7 8.4
2014-Dec-31 03:33S 32°38' E 152°37'9 8.6
2014-Dec-31 02:30S 32°45' E 152°32'9 9.2
2014-Dec-31 01:33S 32°50' E 152°23'10 9.8
2014-Dec-31 00:33S 32°55' E 152°13'19 9.4
2014-Dec-30 22:33S 32°58' E 151°51'5 4.9
2014-Dec-30 21:33S 32°55' E 151°46'2 2.0
2014-Dec-30 20:29S 32°53' E 151°45'0 0.0
2014-Dec-30 17:23S 32°53' E 151°45'0 0.0
2014-Dec-30 16:29S 32°53' E 151°45'0 0.0
2014-Dec-30 14:23S 32°53' E 151°45'0 0.0
2014-Dec-30 13:29S 32°53' E 151°45'0 0.0
2014-Dec-30 12:05S 32°53' E 151°45'0 0.0
2014-Dec-30 11:05S 32°53' E 151°45'0 0.0
2014-Dec-30 10:29S 32°53' E 151°45'0 0.0
2014-Dec-30 09:29S 32°53' E 151°45'0 0.0
2014-Dec-30 08:23S 32°53' E 151°45'0 0.0
2014-Dec-30 07:29S 32°53' E 151°45'0 0.0
2014-Dec-30 06:29S 32°53' E 151°45'0 0.0
2014-Dec-30 05:23S 32°53' E 151°45'0 0.0
2014-Dec-30 04:17S 32°53' E 151°45'0 0.0
2014-Dec-30 03:29S 32°53' E 151°45'0 0.0
2014-Dec-30 02:29S 32°53' E 151°45'0 0.0
2014-Dec-30 01:29S 32°53' E 151°45'0 0.0
2014-Dec-30 00:05S 32°53' E 151°45'0 0.0
2014-Dec-29 23:05S 32°53' E 151°45'0 0.0
2014-Dec-29 22:33S 32°53' E 151°45'2 2.2
2014-Dec-29 21:33S 32°55' E 151°46'7 7.0
2014-Dec-29 20:33S 32°58' E 151°54'1010.4
2014-Dec-29 19:33S 32°56' E 152°06'1010.3
2014-Dec-29 18:33S 32°53' E 152°18'1312.9
2014-Dec-29 17:33S 32°47' E 152°31'1313.3
2014-Dec-29 16:34S 32°40' E 152°45'1514.9
2014-Dec-29 15:33S 32°30' E 152°58'1414.5
2014-Dec-29 14:33S 32°21' E 153°11'28 9.2
2014-Dec-29 11:28S 32°01' E 153°35'1111.9
2014-Dec-29 10:33S 31°51' E 153°38'30113.0
2014-Dec-28 11:29S 26°51' E 154°08'1313.5
2014-Dec-28 10:30S 26°38' E 154°10'1312.9
2014-Dec-28 09:32S 26°26' E 154°10'1312.9
2014-Dec-28 08:31S 26°13' E 154°11'1313.2
2014-Dec-28 07:30S 25°59' E 154°12'1313.3
2014-Dec-28 06:33S 25°47' E 154°13'  
Track history (hours):
 
Tides and Currents Weather Stations Pressure Air Temp Water Temp Dewpoint Dewpoint Depression Visibility Wind Speed Wind Dir Waves Ship Positions

Elettra

Last reported at 2015-Jan-01 19:29 UTC. Time now 2015-Jan-29 18:23 UTC.
Position S 27°02' E 153°49'.
Warning: this ship's position is 27 days out of date.

Length 254 m; draft 13.5 m.

Type: Ship. MMSI: 371188000.

Date/timePositionNaut miles runAvg speedWind from/ knotsBaromVisibWave heightAir tempDewpointWater temp
2015-Jan-01 19:29S 27°02' E 153°49'1211.0
2015-Jan-01 18:25S 27°13' E 153°48'1010.5
2015-Jan-01 17:30S 27°23' E 153°47'1010.1
2015-Jan-01 16:33S 27°33' E 153°48'1010.0
2015-Jan-01 15:33S 27°43' E 153°49'1010.1
2015-Jan-01 14:33S 27°53' E 153°49'10 9.7
2015-Jan-01 13:33S 28°02' E 153°50'276 8.3
2014-Dec-31 04:23S 32°31' E 152°41'7 8.4
2014-Dec-31 03:33S 32°38' E 152°37'9 8.6
2014-Dec-31 02:30S 32°45' E 152°32'9 9.2
2014-Dec-31 01:33S 32°50' E 152°23'10 9.8
2014-Dec-31 00:33S 32°55' E 152°13'19 9.4
2014-Dec-30 22:33S 32°58' E 151°51'5 4.9
2014-Dec-30 21:33S 32°55' E 151°46'2 2.0
2014-Dec-30 20:29S 32°53' E 151°45'0 0.0
2014-Dec-30 17:23S 32°53' E 151°45'0 0.0
2014-Dec-30 16:29S 32°53' E 151°45'0 0.0
2014-Dec-30 14:23S 32°53' E 151°45'0 0.0
2014-Dec-30 13:29S 32°53' E 151°45'0 0.0
2014-Dec-30 12:05S 32°53' E 151°45'0 0.0
2014-Dec-30 11:05S 32°53' E 151°45'0 0.0
2014-Dec-30 10:29S 32°53' E 151°45'0 0.0
2014-Dec-30 09:29S 32°53' E 151°45'0 0.0
2014-Dec-30 08:23S 32°53' E 151°45'0 0.0
2014-Dec-30 07:29S 32°53' E 151°45'0 0.0
2014-Dec-30 06:29S 32°53' E 151°45'0 0.0
2014-Dec-30 05:23S 32°53' E 151°45'0 0.0
2014-Dec-30 04:17S 32°53' E 151°45'0 0.0
2014-Dec-30 03:29S 32°53' E 151°45'0 0.0
2014-Dec-30 02:29S 32°53' E 151°45'0 0.0
2014-Dec-30 01:29S 32°53' E 151°45'0 0.0
2014-Dec-30 00:05S 32°53' E 151°45'0 0.0
2014-Dec-29 23:05S 32°53' E 151°45'0 0.0
2014-Dec-29 22:33S 32°53' E 151°45'2 2.2
2014-Dec-29 21:33S 32°55' E 151°46'7 7.0
2014-Dec-29 20:33S 32°58' E 151°54'1010.4
2014-Dec-29 19:33S 32°56' E 152°06'1010.3
2014-Dec-29 18:33S 32°53' E 152°18'1312.9
2014-Dec-29 17:33S 32°47' E 152°31'1313.3
2014-Dec-29 16:34S 32°40' E 152°45'1514.9
2014-Dec-29 15:33S 32°30' E 152°58'1414.5
2014-Dec-29 14:33S 32°21' E 153°11'28 9.2
2014-Dec-29 11:28S 32°01' E 153°35'1111.9
2014-Dec-29 10:33S 31°51' E 153°38'30113.0
2014-Dec-28 11:29S 26°51' E 154°08'1313.5
2014-Dec-28 10:30S 26°38' E 154°10'1312.9
2014-Dec-28 09:32S 26°26' E 154°10'1312.9
2014-Dec-28 08:31S 26°13' E 154°11'1313.2
2014-Dec-28 07:30S 25°59' E 154°12'1313.3
2014-Dec-28 06:33S 25°47' E 154°13'  

Dump ship's entire track history